Time;durP1;ratioP1;P1;durP2;ratioP2;P2;SDS_P1;SDS_P2;PMS_P1;PMS_P2;Temp;Humidity;BMP_temperature;BMP_pressure;BME280_temperature;BME280_humidity;BME280_pressure;Samples;Min_cycle;Max_cycle;Signal;HPM_P1;HPM_P2
2021/01/28 00:06:14;;;;;;;0.00;0.00;;;0.30;90.70;;;;;;20652777;28;20082;-64
2021/01/28 00:16:16;;;;;;;0.00;0.00;;;-0.40;93.10;;;;;;20681507;28;20123;-64
2021/01/28 00:26:18;;;;;;;0.00;0.00;;;-0.40;93.70;;;;;;20676970;28;20038;-64
2021/01/28 00:36:20;;;;;;;0.00;0.00;;;0.40;92.30;;;;;;20665277;28;20046;-64
2021/01/28 00:46:23;;;;;;;0.00;0.00;;;0.70;91.30;;;;;;20666704;28;20030;-65
2021/01/28 00:56:25;;;;;;;0.00;0.00;;;0.50;92.10;;;;;;20646660;28;20405;-65
2021/01/28 01:06:27;;;;;;;0.00;0.00;;;1.70;88.20;;;;;;20647511;28;20108;-65
2021/01/28 01:16:30;;;;;;;0.22;0.00;;;2.70;81.10;;;;;;20679341;28;20500;-64
2021/01/28 01:26:44;;;;;;;0.20;0.00;;;3.50;76.60;;;;;;20650752;28;20045;-63
2021/01/28 01:36:47;;;;;;;0.00;0.00;;;3.80;76.20;;;;;;20644210;28;20050;-63
2021/01/28 01:46:58;;;;;;;0.00;0.00;;;4.10;74.70;;;;;;20645427;28;20398;-63
2021/01/28 01:57:05;;;;;;;0.00;0.00;;;4.30;71.80;;;;;;20660745;28;20488;-63
2021/01/28 02:07:20;;;;;;;0.00;0.00;;;4.30;69.10;;;;;;20628820;28;20054;-63
2021/01/28 02:17:47;;;;;;;0.43;0.08;;;4.60;68.80;;;;;;20685769;28;20073;-64
2021/01/28 02:28:16;;;;;;;0.30;0.10;;;2.40;69.80;;;;;;20661276;28;20038;-63
2021/01/28 02:38:22;;;;;;;0.65;0.10;;;-0.30;78.80;;;;;;20663877;28;20452;-64
2021/01/28 02:48:29;;;;;;;0.30;0.10;;;-1.90;89.00;;;;;;20658377;28;20034;-63
2021/01/28 02:58:48;;;;;;;0.20;0.00;;;-2.60;93.30;;;;;;20658768;28;20081;-64
2021/01/28 03:08:55;;;;;;;0.13;0.00;;;-3.10;95.90;;;;;;20656958;28;20130;-65
2021/01/28 03:19:12;;;;;;;0.47;0.10;;;-3.20;97.70;;;;;;20695181;28;20038;-64
2021/01/28 03:29:16;;;;;;;0.00;0.00;;;-3.40;98.20;;;;;;20654962;28;20523;-64
2021/01/28 03:39:19;;;;;;;0.35;0.00;;;-3.50;98.90;;;;;;20622100;28;20046;-65
2021/01/28 03:49:21;;;;;;;0.00;0.00;;;-3.60;98.80;;;;;;20652397;28;20097;-65
2021/01/28 03:59:46;;;;;;;0.00;0.00;;;-3.50;99.90;;;;;;20653534;28;20050;-64
2021/01/28 04:10:00;;;;;;;0.30;0.00;;;-3.30;99.20;;;;;;20651294;28;20042;-64
2021/01/28 04:20:10;;;;;;;0.20;0.00;;;-3.50;99.90;;;;;;20691227;28;20046;-64
2021/01/28 04:30:21;;;;;;;0.05;0.00;;;-3.40;99.90;;;;;;20652597;28;20489;-64
2021/01/28 04:40:46;;;;;;;0.20;0.00;;;-3.30;99.90;;;;;;20649522;28;20054;-65
2021/01/28 04:50:51;;;;;;;0.00;0.00;;;-3.40;99.50;;;;;;20632399;28;20476;-64
2021/01/28 05:01:02;;;;;;;1.38;0.00;;;-3.60;99.90;;;;;;20648779;28;20100;-64
2021/01/28 05:11:28;;;;;;;0.00;0.00;;;-3.60;99.90;;;;;;20664119;28;20058;-65
2021/01/28 05:22:17;;;;;;;0.00;0.00;;;-3.40;99.90;;;;;;20702281;28;20093;-64
2021/01/28 05:32:49;;;;;;;0.10;0.00;;;-3.20;99.90;;;;;;20660391;28;20046;-64
2021/01/28 05:43:28;;;;;;;0.00;0.00;;;-3.20;99.90;;;;;;20649909;28;20042;-64
2021/01/28 05:53:37;;;;;;;0.10;0.00;;;-3.20;99.90;;;;;;20629227;28;20101;-64
2021/01/28 06:04:50;;;;;;;0.00;0.00;;;-3.20;99.90;;;;;;20647064;28;20444;-65
2021/01/28 06:15:05;;;;;;;0.00;0.00;;;-3.10;99.90;;;;;;20498180;28;20057;-65
2021/01/28 06:25:33;;;;;;;0.00;0.00;;;-3.00;99.90;;;;;;20661050;28;20042;-65
2021/01/28 06:35:54;;;;;;;0.10;0.00;;;-3.00;99.90;;;;;;20659053;28;20112;-65
2021/01/28 06:46:38;;;;;;;0.05;0.00;;;-2.90;99.90;;;;;;20663124;28;20046;-66
2021/01/28 06:57:19;;;;;;;0.00;0.00;;;-3.20;99.90;;;;;;20656524;28;20503;-65
2021/01/28 07:08:14;;;;;;;0.10;0.00;;;-3.10;99.90;;;;;;20655495;28;20058;-64
2021/01/28 07:18:46;;;;;;;0.00;0.00;;;-2.70;99.90;;;;;;20688237;28;20496;-65
2021/01/28 07:28:48;;;;;;;;;;;-2.50;99.90;;;;;;20655450;28;20370;-65
2021/01/28 07:38:56;;;;;;;0.00;0.00;;;-2.50;99.90;;;;;;20671262;28;19940;-65
2021/01/28 07:49:24;;;;;;;0.20;0.00;;;-2.00;99.90;;;;;;20670439;28;20069;-64
2021/01/28 08:00:14;;;;;;;0.00;0.00;;;-1.00;99.90;;;;;;20468924;28;20508;-64
2021/01/28 08:10:22;;;;;;;0.38;0.10;;;0.10;99.60;;;;;;20635146;28;20058;-63
2021/01/28 08:20:28;;;;;;;0.08;0.00;;;1.00;96.10;;;;;;20666781;28;20054;-63
2021/01/28 08:30:30;;;;;;;0.10;0.10;;;0.70;95.60;;;;;;20668267;28;20039;-64
2021/01/28 08:40:32;;;;;;;0.15;0.00;;;0.20;94.70;;;;;;20648531;28;20050;-64
2021/01/28 08:50:34;;;;;;;0.10;0.00;;;0.60;98.70;;;;;;20648491;28;20042;-63
2021/01/28 09:00:45;;;;;;;1.75;0.70;;;2.70;95.20;;;;;;20665891;28;20374;-63
2021/01/28 09:10:48;;;;;;;1.43;0.40;;;2.80;88.90;;;;;;20664332;28;20460;-63
2021/01/28 09:20:50;;;;;;;1.38;0.20;;;2.40;91.50;;;;;;20686073;28;20073;-65
2021/01/28 09:30:54;;;;;;;0.10;0.00;;;3.10;92.20;;;;;;20664691;28;20034;-65
2021/01/28 09:41:18;;;;;;;0.55;0.10;;;5.60;94.60;;;;;;20644480;28;20073;-64
2021/01/28 09:51:33;;;;;;;1.85;0.40;;;6.90;81.00;;;;;;20661697;28;20440;-64
2021/01/28 10:01:36;;;;;;;1.10;0.30;;;5.20;71.30;;;;;;20629614;28;20050;-63
2021/01/28 10:11:39;;;;;;;0.73;0.38;;;4.50;73.40;;;;;;20660085;28;20065;-63
2021/01/28 10:21:42;;;;;;;1.48;0.70;;;3.70;77.10;;;;;;20666626;28;20094;-63
2021/01/28 10:31:44;;;;;;;2.42;0.95;;;3.10;80.30;;;;;;20660251;28;20061;-64
2021/01/28 10:41:49;;;;;;;2.75;0.52;;;3.10;79.50;;;;;;20659816;28;20038;-64
2021/01/28 10:51:51;;;;;;;1.80;0.57;;;2.80;80.20;;;;;;20660004;28;20476;-65
2021/01/28 11:01:54;;;;;;;2.10;0.80;;;3.30;82.20;;;;;;20668266;28;20441;-64
2021/01/28 11:11:57;;;;;;;2.35;0.80;;;3.60;80.60;;;;;;20672175;28;20100;-65
2021/01/28 11:22:01;;;;;;;1.45;0.70;;;3.90;75.20;;;;;;20712364;28;20030;-65
2021/01/28 11:32:03;;;;;;;1.77;0.95;;;4.90;74.10;;;;;;20672477;28;20124;-65
2021/01/28 11:42:05;;;;;;;2.35;1.40;;;4.50;78.40;;;;;;20670672;28;20461;-65
2021/01/28 11:52:07;;;;;;;1.55;0.77;;;4.50;73.60;;;;;;20653213;28;20038;-65
2021/01/28 12:02:09;;;;;;;2.08;1.40;;;5.10;92.60;;;;;;20810655;23;21105;-65
2021/01/28 12:12:12;;;;;;;2.80;1.60;;;6.20;74.30;;;;;;20651205;28;20039;-65
2021/01/28 12:22:14;;;;;;;4.28;2.67;;;5.80;74.50;;;;;;20708576;28;20445;-65
2021/01/28 12:32:16;;;;;;;3.55;2.28;;;5.90;71.90;;;;;;20668015;28;20042;-65
2021/01/28 12:42:18;;;;;;;3.50;2.22;;;4.80;66.60;;;;;;20666121;28;20085;-65
2021/01/28 12:52:21;;;;;;;5.97;2.30;;;4.20;69.40;;;;;;20665068;28;20046;-65
2021/01/28 13:02:23;;;;;;;5.20;2.80;;;3.10;73.90;;;;;;20667301;28;20492;-64
2021/01/28 13:12:26;;;;;;;5.03;2.72;;;1.70;77.50;;;;;;20630802;28;20046;-64
2021/01/28 13:22:27;;;;;;;5.80;3.45;;;2.40;73.60;;;;;;20702456;28;20408;-64
2021/01/28 13:32:30;;;;;;;5.32;2.85;;;2.70;79.10;;;;;;20646880;28;20392;-64
2021/01/28 13:42:37;;;;;;;4.97;2.97;;;2.30;76.20;;;;;;20663559;28;20042;-64
2021/01/28 13:52:41;;;;;;;6.60;2.80;;;2.10;79.60;;;;;;20644346;28;20054;-65
2021/01/28 14:02:43;;;;;;;1.23;0.60;;;2.20;83.70;;;;;;20661596;28;20058;-64
2021/01/28 14:12:45;;;;;;;1.15;0.65;;;2.50;99.90;;;;;;20663094;28;20054;-64
2021/01/28 14:22:51;;;;;;;1.48;0.50;;;2.70;99.90;;;;;;20698294;28;20448;-64
2021/01/28 14:32:53;;;;;;;5.20;2.45;;;3.10;99.90;;;;;;20661782;28;20476;-65
2021/01/28 14:42:56;;;;;;;1.95;0.40;;;2.80;98.70;;;;;;20677403;28;20058;-64
2021/01/28 14:52:58;;;;;;;5.97;3.60;;;2.30;99.90;;;;;;20674338;28;20058;-64
2021/01/28 15:03:02;;;;;;;5.95;3.20;;;2.30;96.20;;;;;;20673724;28;20109;-64
2021/01/28 15:13:05;;;;;;;7.78;3.50;;;0.60;97.50;;;;;;20678441;28;20115;-64
2021/01/28 15:23:08;;;;;;;6.07;3.40;;;0.10;99.90;;;;;;20708196;28;20089;-65
2021/01/28 15:33:12;;;;;;;7.88;4.40;;;-0.20;99.90;;;;;;20670480;28;20051;-65
2021/01/28 15:43:15;;;;;;;13.93;4.43;;;-0.30;99.90;;;;;;20672750;28;20034;-64
2021/01/28 15:53:17;;;;;;;9.02;4.38;;;-1.20;99.90;;;;;;20669906;28;20105;-64
2021/01/28 16:03:19;;;;;;;9.10;5.13;;;-1.60;99.90;;;;;;20667713;28;20042;-64
2021/01/28 16:13:22;;;;;;;13.27;6.07;;;-1.30;99.90;;;;;;20675225;28;20045;-64
2021/01/28 16:23:23;;;;;;;15.82;8.52;;;-0.90;99.90;;;;;;20701707;28;20057;-64
2021/01/28 16:33:25;;;;;;;17.10;8.60;;;-2.00;99.90;;;;;;20667264;28;20507;-64
2021/01/28 16:43:28;;;;;;;17.10;8.88;;;-2.70;99.90;;;;;;20667380;28;20046;-65
2021/01/28 16:53:30;;;;;;;17.80;9.07;;;-3.10;99.90;;;;;;20665584;28;20074;-65
2021/01/28 17:03:31;;;;;;;17.25;9.18;;;-3.30;99.90;;;;;;20663982;28;20054;-65
2021/01/28 17:13:33;;;;;;;18.67;10.48;;;-3.00;99.90;;;;;;20639740;28;20046;-65
2021/01/28 17:23:36;;;;;;;19.30;11.25;;;-2.60;99.90;;;;;;20695544;28;20460;-65
2021/01/28 17:33:38;;;;;;;17.90;9.85;;;-2.60;99.90;;;;;;20645082;28;20456;-64
2021/01/28 17:43:40;;;;;;;17.20;9.40;;;-2.90;99.90;;;;;;20645783;28;20039;-65
2021/01/28 17:53:42;;;;;;;18.27;10.75;;;-3.00;99.90;;;;;;20662406;28;20050;-64
2021/01/28 18:03:44;;;;;;;17.65;10.25;;;-3.30;99.90;;;;;;20661402;28;20113;-65
2021/01/28 18:13:46;;;;;;;26.08;12.82;;;-3.70;99.90;;;;;;20665809;28;20050;-65
2021/01/28 18:23:48;;;;;;;19.67;11.90;;;-3.90;99.90;;;;;;20362935;28;10001012;-65
2021/01/28 18:33:50;;;;;;;18.15;11.68;;;-3.50;99.90;;;;;;20642394;28;20054;-64
2021/01/28 18:43:54;;;;;;;17.65;10.23;;;-3.60;99.90;;;;;;20659978;28;20120;-65
2021/01/28 18:53:56;;;;;;;20.83;12.82;;;-3.60;99.90;;;;;;20675010;28;20054;-64
2021/01/28 19:03:59;;;;;;;11.30;6.18;;;-3.60;99.90;;;;;;20639991;28;20050;-64
2021/01/28 19:14:02;;;;;;;14.10;7.00;;;-3.30;99.90;;;;;;20685935;28;20050;-64
2021/01/28 19:24:05;;;;;;;10.05;6.03;;;-3.00;99.90;;;;;;20700312;28;20096;-64
2021/01/28 19:34:07;;;;;;;9.63;5.18;;;-2.80;99.90;;;;;;20666847;28;20100;-65
2021/01/28 19:44:09;;;;;;;6.90;3.72;;;-2.90;99.90;;;;;;20678333;28;20067;-64
2021/01/28 19:54:11;;;;;;;7.15;3.22;;;-3.00;99.90;;;;;;20690645;28;20569;-66
2021/01/28 20:04:15;;;;;;;6.55;3.67;;;-2.70;99.90;;;;;;20735613;28;20058;-64
2021/01/28 20:14:18;;;;;;;13.65;7.15;;;-2.60;99.90;;;;;;20669128;28;20061;-65
2021/01/28 20:24:21;;;;;;;10.60;5.30;;;-2.60;99.90;;;;;;20650320;28;20034;-65
2021/01/28 20:34:24;;;;;;;14.68;8.40;;;-2.60;99.90;;;;;;20685604;28;20085;-64
2021/01/28 20:44:26;;;;;;;9.50;5.10;;;-2.80;99.90;;;;;;20650362;28;20104;-64
2021/01/28 20:54:29;;;;;;;3.55;2.00;;;-2.90;99.90;;;;;;20665790;28;20046;-65
2021/01/28 21:04:31;;;;;;;7.40;4.38;;;-2.20;99.90;;;;;;20665184;28;20128;-65
2021/01/28 21:14:33;;;;;;;7.55;3.25;;;-2.50;99.90;;;;;;20647660;28;20089;-64
2021/01/28 21:24:35;;;;;;;10.00;3.80;;;-2.50;99.90;;;;;;20700812;28;20038;-65
2021/01/28 21:34:38;;;;;;;10.57;5.35;;;-2.40;99.90;;;;;;20708497;28;20128;-65
2021/01/28 21:44:40;;;;;;;10.85;5.78;;;-2.50;99.90;;;;;;20644889;28;20034;-65
2021/01/28 21:54:44;;;;;;;9.15;4.63;;;-2.00;99.90;;;;;;20644562;28;20046;-65
2021/01/28 22:04:46;;;;;;;7.00;3.53;;;-2.20;99.90;;;;;;20644385;28;20424;-65
2021/01/28 22:14:48;;;;;;;6.68;3.38;;;-2.60;99.90;;;;;;20661864;28;20047;-65
2021/01/28 22:24:49;;;;;;;6.28;3.72;;;-2.80;99.90;;;;;;20700265;28;20038;-65
2021/01/28 22:34:51;;;;;;;5.82;1.90;;;-3.10;99.90;;;;;;20657616;28;20549;-65
2021/01/28 22:44:53;;;;;;;3.40;2.03;;;-2.60;99.90;;;;;;20661011;28;20038;-65
2021/01/28 22:54:56;;;;;;;2.70;1.50;;;-2.10;99.90;;;;;;20662199;28;20055;-65
2021/01/28 23:04:58;;;;;;;4.28;1.25;;;-1.90;99.90;;;;;;20674276;28;20046;-65
2021/01/28 23:15:01;;;;;;;2.03;0.93;;;-1.40;99.90;;;;;;20656988;28;20496;-65
2021/01/28 23:25:06;;;;;;;5.88;2.53;;;-1.30;99.90;;;;;;20713213;28;20408;-65
2021/01/28 23:35:16;;;;;;;1.83;0.57;;;-1.70;99.90;;;;;;20730730;28;20091;-64
2021/01/28 23:45:19;;;;;;;0.98;0.32;;;-1.50;99.90;;;;;;20672287;28;20042;-65
2021/01/28 23:55:21;;;;;;;0.70;0.30;;;-0.70;99.90;;;;;;20671104;28;20396;-66
